BAW442 ESGG-EFHK
Flight info
| Callsign | BAW442 |
|---|---|
| Flight time | N/A |
| Altitude | 41000 |
| Route | LABAN N873 DETSO DCT TUSNI DCT RIRIP Y364 LAKUT |
| Aircraft | A35K/H-SDE2E3GHIJ3J4J5LM1ORWXY/LB1D1 |
Departure
| Time | 2026-04-30 20:25 |
|---|---|
| Airport | Göteborg Landvetter Airport (ESGG) |
Arrival
| Time | N/A |
|---|---|
| Airport | Helsinki Vantaa Airport (EFHK) |
| Time | Latitude | Longitude | Altitude | Speed | Heading |
|---|---|---|---|---|---|
| 2026-04-30 20:07 | 57.66595 | 12.29119 | 531 ft | 0 kts | 116° |
| 2026-04-30 20:18 | 57.66596 | 12.29117 | 531 ft | 2 kts | 116° |
| 2026-04-30 20:18 | 57.66603 | 12.29087 | 531 ft | 3 kts | 122° |
| 2026-04-30 20:18 | 57.66614 | 12.29060 | 535 ft | 3 kts | 136° |
| 2026-04-30 20:19 | 57.66630 | 12.29040 | 532 ft | 3 kts | 173° |
| 2026-04-30 20:19 | 57.66643 | 12.29039 | 536 ft | 3 kts | 197° |
| 2026-04-30 20:19 | 57.66647 | 12.29040 | 538 ft | 0 kts | 204° |
| 2026-04-30 20:21 | 57.66640 | 12.29034 | 536 ft | 4 kts | 204° |
| 2026-04-30 20:21 | 57.66605 | 12.28981 | 530 ft | 8 kts | 244° |
| 2026-04-30 20:21 | 57.66625 | 12.28878 | 530 ft | 11 kts | 301° |
| 2026-04-30 20:22 | 57.66678 | 12.28736 | 530 ft | 15 kts | 324° |
| 2026-04-30 20:22 | 57.66783 | 12.28780 | 531 ft | 18 kts | 25° |
| 2026-04-30 20:22 | 57.66910 | 12.28896 | 533 ft | 23 kts | 26° |
| 2026-04-30 20:22 | 57.67062 | 12.29036 | 534 ft | 27 kts | 26° |
| 2026-04-30 20:23 | 57.67234 | 12.29190 | 536 ft | 26 kts | 26° |
| 2026-04-30 20:23 | 57.67384 | 12.29325 | 538 ft | 23 kts | 20° |
| 2026-04-30 20:23 | 57.67449 | 12.29291 | 538 ft | 0 kts | 301° |
| 2026-04-30 20:23 | 57.67453 | 12.29261 | 538 ft | 5 kts | 285° |
| 2026-04-30 20:24 | 57.67452 | 12.29151 | 537 ft | 12 kts | 257° |
| 2026-04-30 20:24 | 57.67398 | 12.28997 | 536 ft | 16 kts | 221° |
| 2026-04-30 20:24 | 57.67368 | 12.28964 | 536 ft | 21 kts | 207° |
| 2026-04-30 20:24 | 57.66883 | 12.28522 | 532 ft | 131 kts | 206° |
| 2026-04-30 20:25 | 57.64384 | 12.26316 | 1490 ft | 242 kts | 206° |
| 2026-04-30 20:25 | 57.62769 | 12.25023 | 2291 ft | 245 kts | 206° |
| 2026-04-30 20:26 | 57.59861 | 12.23025 | 2972 ft | 219 kts | 194° |
| 2026-04-30 20:26 | 57.57031 | 12.24666 | 2995 ft | 231 kts | 131° |
| 2026-04-30 20:26 | 57.56310 | 12.27380 | 3148 ft | 233 kts | 107° |
| 2026-04-30 20:27 | 57.56654 | 12.33358 | 4487 ft | 247 kts | 67° |
| 2026-04-30 20:27 | 57.58059 | 12.39613 | 4999 ft | 271 kts | 65° |
| 2026-04-30 20:28 | 57.59489 | 12.46147 | 5425 ft | 277 kts | 66° |
| 2026-04-30 20:28 | 57.60906 | 12.52771 | 7392 ft | 274 kts | 66° |
| 2026-04-30 20:29 | 57.62764 | 12.59001 | 9102 ft | 279 kts | 46° |
| 2026-04-30 20:30 | 57.67040 | 12.64922 | 10797 ft | 309 kts | 33° |
| 2026-04-30 20:30 | 57.72808 | 12.72158 | 12209 ft | 347 kts | 33° |
| 2026-04-30 20:31 | 57.78891 | 12.79921 | 14279 ft | 358 kts | 33° |
| 2026-04-30 20:32 | 57.85138 | 12.87960 | 16229 ft | 366 kts | 33° |
| 2026-04-30 20:32 | 57.89349 | 12.93395 | 17658 ft | 370 kts | 33° |
| 2026-04-30 20:33 | 57.91476 | 12.96146 | 18320 ft | 373 kts | 33° |
| 2026-04-30 20:33 | 57.95792 | 13.01742 | 19520 ft | 378 kts | 33° |
| 2026-04-30 20:33 | 57.97967 | 13.04570 | 20108 ft | 381 kts | 33° |
| 2026-04-30 20:34 | 58.02328 | 13.10251 | 21266 ft | 386 kts | 32° |
| 2026-04-30 20:34 | 58.06773 | 13.16059 | 22401 ft | 391 kts | 32° |
| 2026-04-30 20:35 | 58.09013 | 13.18993 | 22965 ft | 393 kts | 32° |
| 2026-04-30 20:35 | 58.11270 | 13.21954 | 23535 ft | 396 kts | 32° |
| 2026-04-30 20:35 | 58.15801 | 13.28025 | 24549 ft | 402 kts | 36° |
| 2026-04-30 20:36 | 58.17888 | 13.31602 | 25023 ft | 407 kts | 43° |
| 2026-04-30 20:36 | 58.19831 | 13.35544 | 25515 ft | 410 kts | 45° |
| 2026-04-30 20:36 | 58.23551 | 13.43751 | 26588 ft | 416 kts | 47° |
| 2026-04-30 20:37 | 58.25408 | 13.47972 | 27165 ft | 419 kts | 47° |
| 2026-04-30 20:37 | 58.27286 | 13.52240 | 27777 ft | 422 kts | 47° |
| 2026-04-30 20:37 | 58.29181 | 13.56528 | 28416 ft | 425 kts | 47° |
| 2026-04-30 20:37 | 58.31094 | 13.60837 | 29055 ft | 428 kts | 47° |
| 2026-04-30 20:38 | 58.33034 | 13.65196 | 29610 ft | 434 kts | 46° |
| 2026-04-30 20:38 | 58.34993 | 13.69594 | 30261 ft | 437 kts | 46° |
| 2026-04-30 20:38 | 58.36967 | 13.74024 | 30855 ft | 441 kts | 46° |
| 2026-04-30 20:39 | 58.40972 | 13.83038 | 31948 ft | 448 kts | 47° |
| 2026-04-30 20:39 | 58.42988 | 13.87591 | 32450 ft | 452 kts | 47° |
| 2026-04-30 20:39 | 58.45000 | 13.92145 | 32922 ft | 456 kts | 47° |
| 2026-04-30 20:40 | 58.49124 | 14.01511 | 33828 ft | 464 kts | 47° |
| 2026-04-30 20:40 | 58.51204 | 14.06249 | 34259 ft | 468 kts | 47° |
| 2026-04-30 20:40 | 58.53296 | 14.11027 | 34749 ft | 468 kts | 47° |
| 2026-04-30 20:41 | 58.57473 | 14.20600 | 35770 ft | 469 kts | 47° |
| 2026-04-30 20:41 | 58.59499 | 14.25503 | 36260 ft | 471 kts | 52° |
| 2026-04-30 20:41 | 58.61283 | 14.30783 | 36765 ft | 472 kts | 56° |
| 2026-04-30 20:41 | 58.62984 | 14.36189 | 37253 ft | 473 kts | 57° |
| 2026-04-30 20:42 | 58.64645 | 14.41651 | 37715 ft | 473 kts | 57° |
| 2026-04-30 20:42 | 58.66265 | 14.47080 | 38163 ft | 474 kts | 58° |
| 2026-04-30 20:42 | 58.69521 | 14.58093 | 39070 ft | 474 kts | 58° |
| 2026-04-30 20:43 | 58.71151 | 14.63611 | 39481 ft | 472 kts | 58° |